sensor_id;sensor_type;location;lat;lon;timestamp;noise_LAeq;noise_LA_min;noise_LA_max;noise_LA01;noise_LA95
77134;Laerm;25175;50.140;18.990;2024-03-08T00:02:42;36.19;33.73;41.65;;
77134;Laerm;25175;50.140;18.990;2024-03-08T00:06:35;36.37;34.05;40.96;;
77134;Laerm;25175;50.140;18.990;2024-03-08T00:10:04;36.98;34.35;43.53;;
77134;Laerm;25175;50.140;18.990;2024-03-08T00:13:12;36.56;33.95;41.30;;
77134;Laerm;25175;50.140;18.990;2024-03-08T00:16:21;36.40;34.04;41.92;;
77134;Laerm;25175;50.140;18.990;2024-03-08T00:19:55;36.73;34.16;41.61;;
77134;Laerm;25175;50.140;18.990;2024-03-08T00:23:26;36.41;34.23;41.89;;
77134;Laerm;25175;50.140;18.990;2024-03-08T00:26:48;37.52;33.55;50.61;;
77134;Laerm;25175;50.140;18.990;2024-03-08T00:29:56;36.42;33.98;49.78;;
77134;Laerm;25175;50.140;18.990;2024-03-08T00:33:48;35.98;33.74;38.45;;
77134;Laerm;25175;50.140;18.990;2024-03-08T00:40:52;36.11;33.42;40.96;;
77134;Laerm;25175;50.140;18.990;2024-03-08T00:44:13;37.72;34.25;49.00;;
77134;Laerm;25175;50.140;18.990;2024-03-08T00:47:19;37.17;33.95;64.62;;
77134;Laerm;25175;50.140;18.990;2024-03-08T00:51:14;36.86;34.07;40.79;;
77134;Laerm;25175;50.140;18.990;2024-03-08T00:54:32;37.47;34.39;45.33;;
77134;Laerm;25175;50.140;18.990;2024-03-08T00:57:49;36.99;34.59;40.83;;
77134;Laerm;25175;50.140;18.990;2024-03-08T01:01:10;37.17;34.58;62.34;;
77134;Laerm;25175;50.140;18.990;2024-03-08T01:04:20;36.92;34.07;41.76;;
77134;Laerm;25175;50.140;18.990;2024-03-08T01:07:27;37.06;34.49;42.07;;
77134;Laerm;25175;50.140;18.990;2024-03-08T01:10:37;39.29;34.10;53.00;;
77134;Laerm;25175;50.140;18.990;2024-03-08T01:14:19;38.59;34.78;46.78;;
77134;Laerm;25175;50.140;18.990;2024-03-08T01:17:26;39.19;34.87;51.80;;
77134;Laerm;25175;50.140;18.990;2024-03-08T01:24:14;37.31;34.64;58.45;;
77134;Laerm;25175;50.140;18.990;2024-03-08T01:27:19;37.17;34.52;40.96;;
77134;Laerm;25175;50.140;18.990;2024-03-08T01:30:45;38.43;34.22;63.82;;
77134;Laerm;25175;50.140;18.990;2024-03-08T01:37:53;37.08;33.92;48.72;;
77134;Laerm;25175;50.140;18.990;2024-03-08T01:41:03;37.51;34.24;44.54;;
77134;Laerm;25175;50.140;18.990;2024-03-08T01:44:31;41.69;34.59;54.28;;
77134;Laerm;25175;50.140;18.990;2024-03-08T01:47:58;40.48;34.17;57.56;;
77134;Laerm;25175;50.140;18.990;2024-03-08T02:02:12;39.64;35.00;53.41;;
77134;Laerm;25175;50.140;18.990;2024-03-08T02:05:23;39.31;35.50;59.17;;
77134;Laerm;25175;50.140;18.990;2024-03-08T02:08:29;37.58;34.42;42.81;;
77134;Laerm;25175;50.140;18.990;2024-03-08T02:11:42;37.38;34.29;62.43;;
77134;Laerm;25175;50.140;18.990;2024-03-08T02:14:48;38.32;34.58;47.73;;
77134;Laerm;25175;50.140;18.990;2024-03-08T02:17:59;38.47;35.08;46.29;;
77134;Laerm;25175;50.140;18.990;2024-03-08T02:21:44;37.70;35.06;51.96;;
77134;Laerm;25175;50.140;18.990;2024-03-08T02:25:06;39.67;34.99;52.23;;
77134;Laerm;25175;50.140;18.990;2024-03-08T02:28:17;37.58;34.83;46.21;;
77134;Laerm;25175;50.140;18.990;2024-03-08T02:35:58;37.48;34.76;42.72;;
77134;Laerm;25175;50.140;18.990;2024-03-08T02:39:08;37.42;34.62;41.53;;
77134;Laerm;25175;50.140;18.990;2024-03-08T02:42:34;38.95;35.06;49.06;;
77134;Laerm;25175;50.140;18.990;2024-03-08T02:45:41;41.54;34.95;51.15;;
77134;Laerm;25175;50.140;18.990;2024-03-08T02:48:49;37.86;35.03;45.09;;
77134;Laerm;25175;50.140;18.990;2024-03-08T02:52:00;38.95;35.17;50.02;;
77134;Laerm;25175;50.140;18.990;2024-03-08T02:55:10;38.22;35.32;41.95;;
77134;Laerm;25175;50.140;18.990;2024-03-08T02:58:22;37.96;35.20;41.22;;
77134;Laerm;25175;50.140;18.990;2024-03-08T03:05:17;37.39;34.85;42.19;;
77134;Laerm;25175;50.140;18.990;2024-03-08T03:08:26;38.38;35.24;45.30;;
77134;Laerm;25175;50.140;18.990;2024-03-08T03:17:11;38.05;35.17;42.44;;
77134;Laerm;25175;50.140;18.990;2024-03-08T03:20:25;41.30;35.49;54.66;;
77134;Laerm;25175;50.140;18.990;2024-03-08T03:24:00;38.45;35.63;41.94;;
77134;Laerm;25175;50.140;18.990;2024-03-08T03:27:11;38.55;35.78;44.03;;
77134;Laerm;25175;50.140;18.990;2024-03-08T03:30:32;38.34;35.35;42.59;;
77134;Laerm;25175;50.140;18.990;2024-03-08T03:33:47;38.12;35.04;41.22;;
77134;Laerm;25175;50.140;18.990;2024-03-08T03:36:57;38.18;34.96;42.46;;
77134;Laerm;25175;50.140;18.990;2024-03-08T03:40:10;39.87;35.41;50.03;;
77134;Laerm;25175;50.140;18.990;2024-03-08T03:43:19;39.31;35.65;48.62;;
77134;Laerm;25175;50.140;18.990;2024-03-08T03:50:13;41.07;36.10;55.90;;
77134;Laerm;25175;50.140;18.990;2024-03-08T03:53:38;39.98;35.96;54.21;;
77134;Laerm;25175;50.140;18.990;2024-03-08T03:56:47;41.00;35.93;56.28;;
77134;Laerm;25175;50.140;18.990;2024-03-08T04:00:24;39.07;35.78;43.73;;
77134;Laerm;25175;50.140;18.990;2024-03-08T04:03:37;39.42;36.22;47.54;;
77134;Laerm;25175;50.140;18.990;2024-03-08T04:06:52;41.34;36.05;55.48;;
77134;Laerm;25175;50.140;18.990;2024-03-08T04:10:50;40.31;36.22;52.59;;
77134;Laerm;25175;50.140;18.990;2024-03-08T04:14:00;41.29;36.35;57.92;;
77134;Laerm;25175;50.140;18.990;2024-03-08T04:17:37;41.01;36.76;51.76;;
77134;Laerm;25175;50.140;18.990;2024-03-08T04:21:38;42.76;36.51;57.15;;
77134;Laerm;25175;50.140;18.990;2024-03-08T04:29:10;44.16;36.49;59.34;;
77134;Laerm;25175;50.140;18.990;2024-03-08T04:32:45;44.44;37.54;55.92;;
77134;Laerm;25175;50.140;18.990;2024-03-08T04:36:03;44.25;37.91;53.36;;
77134;Laerm;25175;50.140;18.990;2024-03-08T04:39:23;45.41;37.62;59.64;;
77134;Laerm;25175;50.140;18.990;2024-03-08T04:55:50;44.88;37.17;57.62;;
77134;Laerm;25175;50.140;18.990;2024-03-08T05:02:31;42.85;36.98;58.28;;
77134;Laerm;25175;50.140;18.990;2024-03-08T05:07:18;45.13;36.81;61.12;;
77134;Laerm;25175;50.140;18.990;2024-03-08T05:10:07;43.40;38.16;62.13;;
77134;Laerm;25175;50.140;18.990;2024-03-08T05:13:37;45.41;37.24;62.88;;
77134;Laerm;25175;50.140;18.990;2024-03-08T05:17:03;41.80;37.28;56.22;;
77134;Laerm;25175;50.140;18.990;2024-03-08T05:20:20;46.12;36.88;69.70;;
77134;Laerm;25175;50.140;18.990;2024-03-08T05:27:28;45.20;37.03;61.47;;
77134;Laerm;25175;50.140;18.990;2024-03-08T05:30:52;47.54;37.43;60.17;;
77134;Laerm;25175;50.140;18.990;2024-03-08T05:39:09;44.08;37.00;59.25;;
77134;Laerm;25175;50.140;18.990;2024-03-08T05:42:15;44.62;37.72;59.30;;
77134;Laerm;25175;50.140;18.990;2024-03-08T05:45:34;45.28;37.11;58.61;;
77134;Laerm;25175;50.140;18.990;2024-03-08T05:49:51;46.29;36.82;59.86;;
77134;Laerm;25175;50.140;18.990;2024-03-08T05:54:01;46.58;36.18;70.35;;
77134;Laerm;25175;50.140;18.990;2024-03-08T05:57:56;46.10;36.41;62.32;;
77134;Laerm;25175;50.140;18.990;2024-03-08T06:01:29;47.39;37.86;63.36;;
77134;Laerm;25175;50.140;18.990;2024-03-08T06:04:52;47.39;36.89;58.50;;
77134;Laerm;25175;50.140;18.990;2024-03-08T06:08:06;48.67;37.61;61.71;;
77134;Laerm;25175;50.140;18.990;2024-03-08T06:11:30;47.08;37.34;63.74;;
77134;Laerm;25175;50.140;18.990;2024-03-08T06:14:47;48.76;38.50;62.10;;
77134;Laerm;25175;50.140;18.990;2024-03-08T06:18:44;47.16;38.36;59.36;;
77134;Laerm;25175;50.140;18.990;2024-03-08T06:21:56;46.59;38.06;59.44;;
77134;Laerm;25175;50.140;18.990;2024-03-08T06:25:46;47.70;37.86;58.45;;
77134;Laerm;25175;50.140;18.990;2024-03-08T06:29:06;47.42;37.85;59.77;;
77134;Laerm;25175;50.140;18.990;2024-03-08T06:32:30;51.67;38.31;68.38;;
77134;Laerm;25175;50.140;18.990;2024-03-08T06:35:52;47.97;38.22;63.54;;
77134;Laerm;25175;50.140;18.990;2024-03-08T06:39:42;48.55;38.74;66.41;;
77134;Laerm;25175;50.140;18.990;2024-03-08T06:54:48;48.69;38.34;59.68;;
77134;Laerm;25175;50.140;18.990;2024-03-08T07:05:58;48.43;38.45;59.61;;
77134;Laerm;25175;50.140;18.990;2024-03-08T07:09:28;48.55;38.24;60.08;;
77134;Laerm;25175;50.140;18.990;2024-03-08T07:12:41;49.37;37.64;64.58;;
77134;Laerm;25175;50.140;18.990;2024-03-08T07:16:00;45.92;38.07;59.78;;
77134;Laerm;25175;50.140;18.990;2024-03-08T07:19:32;45.98;37.19;59.97;;
77134;Laerm;25175;50.140;18.990;2024-03-08T07:22:42;47.43;37.53;59.94;;
77134;Laerm;25175;50.140;18.990;2024-03-08T07:25:50;50.10;38.10;70.63;;
77134;Laerm;25175;50.140;18.990;2024-03-08T07:29:21;46.41;37.74;60.02;;
77134;Laerm;25175;50.140;18.990;2024-03-08T07:32:40;46.77;37.51;62.20;;
77134;Laerm;25175;50.140;18.990;2024-03-08T07:36:18;46.76;37.71;65.48;;
77134;Laerm;25175;50.140;18.990;2024-03-08T07:39:47;47.29;38.56;61.23;;
77134;Laerm;25175;50.140;18.990;2024-03-08T07:51:19;47.66;37.00;61.16;;
77134;Laerm;25175;50.140;18.990;2024-03-08T07:54:54;46.31;36.77;58.67;;
77134;Laerm;25175;50.140;18.990;2024-03-08T08:02:01;46.93;36.49;58.26;;
77134;Laerm;25175;50.140;18.990;2024-03-08T08:09:14;45.08;35.95;58.84;;
77134;Laerm;25175;50.140;18.990;2024-03-08T08:31:14;45.68;35.69;59.76;;
77134;Laerm;25175;50.140;18.990;2024-03-08T08:34:40;47.12;36.75;62.94;;
77134;Laerm;25175;50.140;18.990;2024-03-08T08:38:38;47.32;36.43;60.94;;
77134;Laerm;25175;50.140;18.990;2024-03-08T08:42:11;49.53;36.65;67.64;;
77134;Laerm;25175;50.140;18.990;2024-03-08T08:50:37;44.97;36.72;59.95;;
77134;Laerm;25175;50.140;18.990;2024-03-08T08:53:51;44.58;36.79;60.21;;
77134;Laerm;25175;50.140;18.990;2024-03-08T08:57:05;42.52;36.21;57.17;;
77134;Laerm;25175;50.140;18.990;2024-03-08T09:00:15;48.79;37.47;64.60;;
77134;Laerm;25175;50.140;18.990;2024-03-08T09:03:48;46.20;36.94;59.76;;
77134;Laerm;25175;50.140;18.990;2024-03-08T09:07:06;45.76;36.82;57.67;;
77134;Laerm;25175;50.140;18.990;2024-03-08T09:10:21;47.13;37.04;56.84;;
77134;Laerm;25175;50.140;18.990;2024-03-08T09:13:39;54.60;37.52;77.65;;
77134;Laerm;25175;50.140;18.990;2024-03-08T09:17:11;52.28;36.62;76.61;;
77134;Laerm;25175;50.140;18.990;2024-03-08T09:20:21;43.98;35.67;61.26;;
77134;Laerm;25175;50.140;18.990;2024-03-08T09:23:54;43.32;34.87;57.40;;
77134;Laerm;25175;50.140;18.990;2024-03-08T09:35:22;46.76;35.77;64.83;;
77134;Laerm;25175;50.140;18.990;2024-03-08T09:52:23;47.79;35.42;70.82;;
77134;Laerm;25175;50.140;18.990;2024-03-08T09:55:53;43.90;35.39;59.29;;
77134;Laerm;25175;50.140;18.990;2024-03-08T09:59:20;46.49;35.73;63.63;;
77134;Laerm;25175;50.140;18.990;2024-03-08T10:15:47;44.56;35.11;56.17;;
77134;Laerm;25175;50.140;18.990;2024-03-08T10:19:06;43.98;35.20;58.29;;
77134;Laerm;25175;50.140;18.990;2024-03-08T10:22:16;46.78;35.56;61.29;;
77134;Laerm;25175;50.140;18.990;2024-03-08T10:25:41;44.36;35.07;60.47;;
77134;Laerm;25175;50.140;18.990;2024-03-08T10:28:51;43.63;35.44;58.45;;
77134;Laerm;25175;50.140;18.990;2024-03-08T10:32:08;43.92;35.53;57.00;;
77134;Laerm;25175;50.140;18.990;2024-03-08T10:35:21;44.45;35.44;56.70;;
77134;Laerm;25175;50.140;18.990;2024-03-08T10:39:21;45.80;35.79;57.70;;
77134;Laerm;25175;50.140;18.990;2024-03-08T10:42:50;45.20;35.04;58.58;;
77134;Laerm;25175;50.140;18.990;2024-03-08T10:46:21;45.84;36.25;57.32;;
77134;Laerm;25175;50.140;18.990;2024-03-08T10:50:04;44.34;36.22;57.69;;
77134;Laerm;25175;50.140;18.990;2024-03-08T10:53:19;46.66;36.33;60.02;;
77134;Laerm;25175;50.140;18.990;2024-03-08T10:57:12;45.40;35.26;63.74;;
77134;Laerm;25175;50.140;18.990;2024-03-08T11:00:59;44.49;35.22;59.30;;
77134;Laerm;25175;50.140;18.990;2024-03-08T11:04:24;44.63;35.18;55.43;;
77134;Laerm;25175;50.140;18.990;2024-03-08T11:07:59;44.72;35.11;60.43;;
77134;Laerm;25175;50.140;18.990;2024-03-08T11:11:26;45.70;35.09;61.10;;
77134;Laerm;25175;50.140;18.990;2024-03-08T11:14:56;45.32;35.49;60.11;;
77134;Laerm;25175;50.140;18.990;2024-03-08T11:18:55;45.44;35.19;58.61;;
77134;Laerm;25175;50.140;18.990;2024-03-08T11:22:28;44.02;35.32;55.80;;
77134;Laerm;25175;50.140;18.990;2024-03-08T11:26:18;45.44;36.25;58.60;;
77134;Laerm;25175;50.140;18.990;2024-03-08T11:29:41;43.41;36.20;56.27;;
77134;Laerm;25175;50.140;18.990;2024-03-08T11:33:00;45.88;37.24;57.35;;
77134;Laerm;25175;50.140;18.990;2024-03-08T11:36:14;48.33;36.82;58.66;;
77134;Laerm;25175;50.140;18.990;2024-03-08T11:39:27;47.25;37.44;59.56;;
77134;Laerm;25175;50.140;18.990;2024-03-08T11:43:12;45.90;36.14;57.40;;
77134;Laerm;25175;50.140;18.990;2024-03-08T11:46:54;43.94;36.98;57.48;;
77134;Laerm;25175;50.140;18.990;2024-03-08T11:50:20;46.33;35.79;57.79;;
77134;Laerm;25175;50.140;18.990;2024-03-08T11:53:35;45.67;36.01;62.51;;
77134;Laerm;25175;50.140;18.990;2024-03-08T11:56:42;47.35;35.71;64.12;;
77134;Laerm;25175;50.140;18.990;2024-03-08T12:00:44;45.16;35.54;60.71;;
77134;Laerm;25175;50.140;18.990;2024-03-08T12:04:16;47.38;35.93;59.51;;
77134;Laerm;25175;50.140;18.990;2024-03-08T12:08:01;45.25;35.99;58.86;;
77134;Laerm;25175;50.140;18.990;2024-03-08T12:11:10;46.64;37.41;67.16;;
77134;Laerm;25175;50.140;18.990;2024-03-08T12:14:36;47.37;37.44;60.86;;
77134;Laerm;25175;50.140;18.990;2024-03-08T12:18:04;46.70;36.48;59.08;;
77134;Laerm;25175;50.140;18.990;2024-03-08T12:21:31;45.39;35.83;58.04;;
77134;Laerm;25175;50.140;18.990;2024-03-08T12:25:11;44.73;36.13;64.36;;
77134;Laerm;25175;50.140;18.990;2024-03-08T12:37:06;44.61;35.39;56.44;;
77134;Laerm;25175;50.140;18.990;2024-03-08T12:44:56;48.53;35.69;64.17;;
77134;Laerm;25175;50.140;18.990;2024-03-08T12:52:52;46.15;35.82;62.67;;
77134;Laerm;25175;50.140;18.990;2024-03-08T13:00:07;46.32;36.16;58.86;;
77134;Laerm;25175;50.140;18.990;2024-03-08T13:03:50;47.42;36.04;59.81;;
77134;Laerm;25175;50.140;18.990;2024-03-08T13:07:32;47.46;36.55;65.91;;
77134;Laerm;25175;50.140;18.990;2024-03-08T13:15:12;46.28;36.71;58.44;;
77134;Laerm;25175;50.140;18.990;2024-03-08T13:26:23;47.95;36.40;60.63;;
77134;Laerm;25175;50.140;18.990;2024-03-08T13:29:41;45.62;35.75;58.35;;
77134;Laerm;25175;50.140;18.990;2024-03-08T13:36:33;45.49;35.89;60.53;;
77134;Laerm;25175;50.140;18.990;2024-03-08T13:39:49;46.77;36.12;59.07;;
77134;Laerm;25175;50.140;18.990;2024-03-08T13:47:20;46.26;36.31;60.95;;
77134;Laerm;25175;50.140;18.990;2024-03-08T13:50:29;49.86;37.02;69.90;;
77134;Laerm;25175;50.140;18.990;2024-03-08T13:53:58;46.39;35.99;58.62;;
77134;Laerm;25175;50.140;18.990;2024-03-08T13:58:12;50.76;37.12;68.36;;
77134;Laerm;25175;50.140;18.990;2024-03-08T14:02:11;47.06;37.22;59.91;;
77134;Laerm;25175;50.140;18.990;2024-03-08T14:05:17;46.38;36.21;57.91;;
77134;Laerm;25175;50.140;18.990;2024-03-08T14:08:45;46.78;37.62;57.20;;
77134;Laerm;25175;50.140;18.990;2024-03-08T14:11:52;48.44;38.59;58.98;;
77134;Laerm;25175;50.140;18.990;2024-03-08T14:15:43;47.02;37.60;57.13;;
77134;Laerm;25175;50.140;18.990;2024-03-08T14:26:34;48.56;37.07;64.50;;
77134;Laerm;25175;50.140;18.990;2024-03-08T14:30:19;49.84;36.66;69.66;;
77134;Laerm;25175;50.140;18.990;2024-03-08T14:33:42;46.82;37.68;56.98;;
77134;Laerm;25175;50.140;18.990;2024-03-08T14:36:54;45.94;36.23;57.38;;
77134;Laerm;25175;50.140;18.990;2024-03-08T14:40:36;47.93;37.01;58.96;;
77134;Laerm;25175;50.140;18.990;2024-03-08T14:44:44;48.25;36.52;62.64;;
77134;Laerm;25175;50.140;18.990;2024-03-08T14:48:07;47.52;38.13;61.33;;
77134;Laerm;25175;50.140;18.990;2024-03-08T14:51:39;46.33;36.77;55.37;;
77134;Laerm;25175;50.140;18.990;2024-03-08T14:54:48;47.25;36.41;60.67;;
77134;Laerm;25175;50.140;18.990;2024-03-08T14:58:27;45.39;36.01;58.11;;
77134;Laerm;25175;50.140;18.990;2024-03-08T15:01:43;48.33;37.82;61.56;;
77134;Laerm;25175;50.140;18.990;2024-03-08T15:05:36;49.65;37.29;65.53;;
77134;Laerm;25175;50.140;18.990;2024-03-08T15:08:46;47.36;36.74;64.71;;
77134;Laerm;25175;50.140;18.990;2024-03-08T15:16:10;45.53;36.36;56.11;;
77134;Laerm;25175;50.140;18.990;2024-03-08T15:19:25;48.29;37.45;60.49;;
77134;Laerm;25175;50.140;18.990;2024-03-08T15:22:54;46.90;35.77;58.24;;
77134;Laerm;25175;50.140;18.990;2024-03-08T15:26:42;47.21;36.04;58.82;;
77134;Laerm;25175;50.140;18.990;2024-03-08T15:30:13;46.23;37.01;59.28;;
77134;Laerm;25175;50.140;18.990;2024-03-08T15:33:32;50.15;36.47;61.40;;
77134;Laerm;25175;50.140;18.990;2024-03-08T15:36:57;45.16;36.20;57.66;;
77134;Laerm;25175;50.140;18.990;2024-03-08T15:44:29;45.90;36.11;56.94;;
77134;Laerm;25175;50.140;18.990;2024-03-08T15:51:20;47.61;37.05;59.37;;
77134;Laerm;25175;50.140;18.990;2024-03-08T15:54:58;47.02;37.02;61.32;;
77134;Laerm;25175;50.140;18.990;2024-03-08T16:14:39;45.85;37.46;62.35;;
77134;Laerm;25175;50.140;18.990;2024-03-08T16:17:51;44.74;36.89;56.55;;
77134;Laerm;25175;50.140;18.990;2024-03-08T16:21:00;45.67;37.26;57.02;;
77134;Laerm;25175;50.140;18.990;2024-03-08T16:33:51;45.81;37.11;56.94;;
77134;Laerm;25175;50.140;18.990;2024-03-08T16:37:02;46.84;37.85;60.30;;
77134;Laerm;25175;50.140;18.990;2024-03-08T16:40:13;45.42;37.72;55.58;;
77134;Laerm;25175;50.140;18.990;2024-03-08T16:43:31;46.45;36.63;57.76;;
77134;Laerm;25175;50.140;18.990;2024-03-08T16:46:48;45.74;37.09;59.81;;
77134;Laerm;25175;50.140;18.990;2024-03-08T16:50:00;46.35;36.64;57.75;;
77134;Laerm;25175;50.140;18.990;2024-03-08T16:53:11;46.57;37.52;62.89;;
77134;Laerm;25175;50.140;18.990;2024-03-08T17:01:02;45.09;38.59;62.18;;
77134;Laerm;25175;50.140;18.990;2024-03-08T17:04:30;46.07;38.19;58.74;;
77134;Laerm;25175;50.140;18.990;2024-03-08T17:07:45;47.94;37.75;65.55;;
77134;Laerm;25175;50.140;18.990;2024-03-08T17:15:20;46.57;38.69;59.16;;
77134;Laerm;25175;50.140;18.990;2024-03-08T17:18:55;44.62;38.18;57.28;;
77134;Laerm;25175;50.140;18.990;2024-03-08T17:22:08;46.10;39.31;57.22;;
77134;Laerm;25175;50.140;18.990;2024-03-08T17:25:44;45.86;38.11;56.91;;
77134;Laerm;25175;50.140;18.990;2024-03-08T17:29:07;45.45;39.20;66.10;;
77134;Laerm;25175;50.140;18.990;2024-03-08T17:32:53;46.50;38.34;60.71;;
77134;Laerm;25175;50.140;18.990;2024-03-08T17:36:12;45.72;38.71;59.08;;
77134;Laerm;25175;50.140;18.990;2024-03-08T17:39:48;47.47;38.68;70.05;;
77134;Laerm;25175;50.140;18.990;2024-03-08T17:47:59;44.90;38.21;56.27;;
77134;Laerm;25175;50.140;18.990;2024-03-08T17:54:47;48.00;38.56;63.26;;
77134;Laerm;25175;50.140;18.990;2024-03-08T17:57:57;44.66;38.39;59.21;;
77134;Laerm;25175;50.140;18.990;2024-03-08T18:01:18;46.73;39.13;60.17;;
77134;Laerm;25175;50.140;18.990;2024-03-08T18:05:50;45.07;37.46;63.73;;
77134;Laerm;25175;50.140;18.990;2024-03-08T18:09:00;45.46;38.44;57.61;;
77134;Laerm;25175;50.140;18.990;2024-03-08T18:12:38;48.24;37.93;72.51;;
77134;Laerm;25175;50.140;18.990;2024-03-08T18:15:56;45.55;38.08;56.90;;
77134;Laerm;25175;50.140;18.990;2024-03-08T18:19:02;44.39;38.05;60.11;;
77134;Laerm;25175;50.140;18.990;2024-03-08T18:31:21;46.97;38.29;60.02;;
77134;Laerm;25175;50.140;18.990;2024-03-08T18:34:33;45.23;37.60;57.35;;
77134;Laerm;25175;50.140;18.990;2024-03-08T18:37:59;45.39;37.53;55.94;;
77134;Laerm;25175;50.140;18.990;2024-03-08T18:41:18;45.80;38.30;57.81;;
77134;Laerm;25175;50.140;18.990;2024-03-08T18:44:54;47.32;37.76;62.88;;
77134;Laerm;25175;50.140;18.990;2024-03-08T18:52:05;45.13;37.65;61.62;;
77134;Laerm;25175;50.140;18.990;2024-03-08T18:59:41;45.83;37.24;61.77;;
77134;Laerm;25175;50.140;18.990;2024-03-08T19:07:07;43.92;36.90;57.86;;
77134;Laerm;25175;50.140;18.990;2024-03-08T19:10:37;43.12;36.68;56.51;;
77134;Laerm;25175;50.140;18.990;2024-03-08T19:14:02;42.86;37.07;54.21;;
77134;Laerm;25175;50.140;18.990;2024-03-08T19:17:14;43.55;37.18;56.35;;
77134;Laerm;25175;50.140;18.990;2024-03-08T19:20:27;43.30;37.16;55.15;;
77134;Laerm;25175;50.140;18.990;2024-03-08T19:23:43;44.83;37.74;57.39;;
77134;Laerm;25175;50.140;18.990;2024-03-08T19:27:04;44.47;37.25;56.61;;
77134;Laerm;25175;50.140;18.990;2024-03-08T19:30:26;43.97;37.49;60.15;;
77134;Laerm;25175;50.140;18.990;2024-03-08T19:33:45;46.50;36.85;64.06;;
77134;Laerm;25175;50.140;18.990;2024-03-08T19:36:55;44.17;37.09;56.36;;
77134;Laerm;25175;50.140;18.990;2024-03-08T19:40:15;46.01;36.94;60.40;;
77134;Laerm;25175;50.140;18.990;2024-03-08T19:43:37;42.62;37.04;54.49;;
77134;Laerm;25175;50.140;18.990;2024-03-08T19:47:01;42.49;36.65;57.65;;
77134;Laerm;25175;50.140;18.990;2024-03-08T19:50:44;41.77;36.54;53.58;;
77134;Laerm;25175;50.140;18.990;2024-03-08T19:53:59;43.20;36.80;55.49;;
77134;Laerm;25175;50.140;18.990;2024-03-08T19:57:32;43.00;37.46;54.38;;
77134;Laerm;25175;50.140;18.990;2024-03-08T20:01:01;43.89;36.52;55.61;;
77134;Laerm;25175;50.140;18.990;2024-03-08T20:04:44;43.74;36.53;60.15;;
77134;Laerm;25175;50.140;18.990;2024-03-08T20:07:52;45.69;37.12;56.39;;
77134;Laerm;25175;50.140;18.990;2024-03-08T20:14:44;42.36;36.91;56.33;;
77134;Laerm;25175;50.140;18.990;2024-03-08T20:18:03;41.95;37.59;54.25;;
77134;Laerm;25175;50.140;18.990;2024-03-08T20:21:45;42.91;37.42;56.53;;
77134;Laerm;25175;50.140;18.990;2024-03-08T20:24:51;42.05;37.09;56.35;;
77134;Laerm;25175;50.140;18.990;2024-03-08T20:28:28;45.55;38.03;57.80;;
77134;Laerm;25175;50.140;18.990;2024-03-08T20:31:55;45.13;37.28;58.04;;
77134;Laerm;25175;50.140;18.990;2024-03-08T20:35:06;44.42;36.91;56.59;;
77134;Laerm;25175;50.140;18.990;2024-03-08T20:38:17;42.47;37.00;61.61;;
77134;Laerm;25175;50.140;18.990;2024-03-08T20:45:15;41.52;36.59;53.05;;
77134;Laerm;25175;50.140;18.990;2024-03-08T20:48:36;44.21;35.93;61.27;;
77134;Laerm;25175;50.140;18.990;2024-03-08T20:52:23;41.89;36.93;55.28;;
77134;Laerm;25175;50.140;18.990;2024-03-08T20:55:35;44.08;36.54;57.46;;
77134;Laerm;25175;50.140;18.990;2024-03-08T20:58:42;42.58;36.82;58.32;;
77134;Laerm;25175;50.140;18.990;2024-03-08T21:02:05;42.66;36.43;58.86;;
77134;Laerm;25175;50.140;18.990;2024-03-08T21:05:33;42.07;36.55;64.98;;
77134;Laerm;25175;50.140;18.990;2024-03-08T21:08:48;41.87;36.62;52.06;;
77134;Laerm;25175;50.140;18.990;2024-03-08T21:12:12;42.28;37.48;56.89;;
77134;Laerm;25175;50.140;18.990;2024-03-08T21:15:21;41.92;36.54;51.94;;
77134;Laerm;25175;50.140;18.990;2024-03-08T21:18:46;44.16;37.45;56.21;;
77134;Laerm;25175;50.140;18.990;2024-03-08T21:22:35;39.57;36.51;43.20;;
77134;Laerm;25175;50.140;18.990;2024-03-08T21:25:47;43.28;36.37;60.29;;
77134;Laerm;25175;50.140;18.990;2024-03-08T21:28:57;43.10;36.48;53.97;;
77134;Laerm;25175;50.140;18.990;2024-03-08T21:32:13;42.14;36.79;56.35;;
77134;Laerm;25175;50.140;18.990;2024-03-08T21:35:49;39.93;36.22;61.47;;
77134;Laerm;25175;50.140;18.990;2024-03-08T21:39:35;41.36;36.62;58.13;;
77134;Laerm;25175;50.140;18.990;2024-03-08T21:42:58;38.99;36.07;61.50;;
77134;Laerm;25175;50.140;18.990;2024-03-08T21:50:12;42.56;36.21;63.36;;
77134;Laerm;25175;50.140;18.990;2024-03-08T21:53:51;42.79;36.41;57.24;;
77134;Laerm;25175;50.140;18.990;2024-03-08T21:57:30;44.91;36.47;64.44;;
77134;Laerm;25175;50.140;18.990;2024-03-08T22:01:17;42.75;35.94;60.17;;
77134;Laerm;25175;50.140;18.990;2024-03-08T22:04:37;41.72;36.05;59.26;;
77134;Laerm;25175;50.140;18.990;2024-03-08T22:09:06;42.30;36.10;64.57;;
77134;Laerm;25175;50.140;18.990;2024-03-08T22:12:21;40.30;36.06;64.21;;
77134;Laerm;25175;50.140;18.990;2024-03-08T22:15:38;40.20;36.57;48.77;;
77134;Laerm;25175;50.140;18.990;2024-03-08T22:19:07;45.11;36.21;65.66;;
77134;Laerm;25175;50.140;18.990;2024-03-08T22:22:22;40.43;35.78;51.35;;
77134;Laerm;25175;50.140;18.990;2024-03-08T22:25:48;41.15;35.44;54.28;;
77134;Laerm;25175;50.140;18.990;2024-03-08T22:29:08;44.16;36.34;59.88;;
77134;Laerm;25175;50.140;18.990;2024-03-08T22:32:28;42.67;35.86;64.10;;
77134;Laerm;25175;50.140;18.990;2024-03-08T22:35:42;39.14;35.72;46.61;;
77134;Laerm;25175;50.140;18.990;2024-03-08T22:39:17;38.66;35.50;46.00;;
77134;Laerm;25175;50.140;18.990;2024-03-08T22:42:47;38.74;35.83;47.15;;
77134;Laerm;25175;50.140;18.990;2024-03-08T22:46:17;39.74;35.53;61.50;;
77134;Laerm;25175;50.140;18.990;2024-03-08T22:49:41;40.19;35.67;53.66;;
77134;Laerm;25175;50.140;18.990;2024-03-08T22:53:07;40.70;35.79;56.04;;
77134;Laerm;25175;50.140;18.990;2024-03-08T22:56:25;38.99;35.61;49.75;;
77134;Laerm;25175;50.140;18.990;2024-03-08T22:59:32;39.99;35.60;55.23;;
77134;Laerm;25175;50.140;18.990;2024-03-08T23:02:45;42.68;35.76;58.41;;
77134;Laerm;25175;50.140;18.990;2024-03-08T23:06:18;41.11;35.79;53.30;;
77134;Laerm;25175;50.140;18.990;2024-03-08T23:09:30;40.63;35.57;57.51;;
77134;Laerm;25175;50.140;18.990;2024-03-08T23:12:43;39.55;35.75;65.68;;
77134;Laerm;25175;50.140;18.990;2024-03-08T23:20:06;39.60;35.66;62.04;;
77134;Laerm;25175;50.140;18.990;2024-03-08T23:24:22;38.41;35.41;45.92;;
77134;Laerm;25175;50.140;18.990;2024-03-08T23:31:50;39.00;35.56;45.64;;
77134;Laerm;25175;50.140;18.990;2024-03-08T23:38:47;41.07;35.40;54.72;;
77134;Laerm;25175;50.140;18.990;2024-03-08T23:42:48;44.19;36.68;60.03;;
77134;Laerm;25175;50.140;18.990;2024-03-08T23:46:14;42.67;35.36;54.47;;
77134;Laerm;25175;50.140;18.990;2024-03-08T23:49:21;38.65;35.66;43.56;;
77134;Laerm;25175;50.140;18.990;2024-03-08T23:52:58;38.28;35.70;45.55;;
77134;Laerm;25175;50.140;18.990;2024-03-08T23:56:29;38.04;35.35;47.71;;
77134;Laerm;25175;50.140;18.990;2024-03-08T23:59:43;38.74;35.11;48.05;;
